createdAt,value
2023-02-24T00:01:20.623Z,100553.73
2023-02-24T00:03:52.363Z,100550.81
2023-02-24T00:06:24.241Z,100553.20
2023-02-24T00:08:55.526Z,100554.50
2023-02-24T00:11:28.319Z,100550.09
2023-02-24T00:14:00.067Z,100547.08
2023-02-24T00:16:31.039Z,100546.90
2023-02-24T00:19:03.271Z,100550.77
2023-02-24T00:21:34.937Z,100545.83
2023-02-24T00:24:06.428Z,100542.91
2023-02-24T00:26:37.756Z,100540.95
2023-02-24T00:29:13.484Z,100541.11
2023-02-24T00:31:47.236Z,100540.67
2023-02-24T00:34:18.239Z,100537.52
2023-02-24T00:36:49.797Z,100535.67
2023-02-24T00:39:30.591Z,100535.91
2023-02-24T00:42:05.575Z,100532.43
2023-02-24T00:44:38.123Z,100524.29
2023-02-24T00:47:11.849Z,100517.41
2023-02-24T00:49:44.453Z,100505.46
2023-02-24T00:52:18.048Z,100505.48
2023-02-24T00:54:50.401Z,100502.66
2023-02-24T00:57:22.083Z,100502.13
2023-02-24T00:59:53.584Z,100498.15
2023-02-24T01:02:24.956Z,100499.27
2023-02-24T01:04:56.143Z,100499.69
2023-02-24T01:07:29.662Z,100495.08
2023-02-24T01:10:01.139Z,100487.09
2023-02-24T01:12:49.878Z,100488.18
2023-02-24T01:15:24.633Z,100474.20
2023-02-24T01:17:56.284Z,100471.77
2023-02-24T01:20:30.590Z,100473.02
2023-02-24T01:23:03.469Z,100464.35
2023-02-24T01:25:35.468Z,100466.17
2023-02-24T01:28:11.250Z,100471.25
2023-02-24T01:30:43.879Z,100470.04
2023-02-24T01:33:15.354Z,100470.56
2023-02-24T01:35:46.317Z,100469.95
2023-02-24T01:38:23.282Z,100460.66
2023-02-24T01:41:00.226Z,100458.09
2023-02-24T01:43:31.835Z,100454.00
2023-02-24T01:46:03.030Z,100450.63
2023-02-24T01:48:34.421Z,100450.44
2023-02-24T01:51:08.421Z,100444.21
2023-02-24T01:53:39.794Z,100440.42
2023-02-24T01:56:13.984Z,100439.38
2023-02-24T01:58:45.822Z,100434.59
2023-02-24T02:01:20.353Z,100438.66
2023-02-24T02:03:52.434Z,100431.38
2023-02-24T02:06:23.747Z,100430.02
2023-02-24T02:08:55.223Z,100427.54
2023-02-24T02:11:27.440Z,100423.38
2023-02-24T02:14:00.681Z,100417.17
2023-02-24T02:16:47.053Z,100413.15
2023-02-24T02:19:44.860Z,100410.58
2023-02-24T02:22:37.217Z,100410.16
2023-02-24T02:25:15.344Z,100402.17
2023-02-24T02:28:25.342Z,100405.49
2023-02-24T02:31:21.110Z,100398.99
2023-02-24T02:34:16.973Z,100393.99
2023-02-24T02:36:56.924Z,100389.64
2023-02-24T02:39:36.386Z,100384.36
2023-02-24T02:42:18.681Z,100383.11
2023-02-24T02:44:58.020Z,100377.09
2023-02-24T02:47:35.787Z,100375.23
2023-02-24T02:50:18.742Z,100373.52
2023-02-24T02:52:56.967Z,100372.52
2023-02-24T02:55:33.064Z,100366.13
2023-02-24T02:58:09.155Z,100366.40
2023-02-24T03:00:50.082Z,100362.65
2023-02-24T03:03:22.462Z,100360.23
2023-02-24T03:05:58.392Z,100359.12
2023-02-24T03:08:37.301Z,100353.88
2023-02-24T03:11:12.254Z,100356.77
2023-02-24T03:13:46.577Z,100351.88
2023-02-24T03:16:20.765Z,100347.27
2023-02-24T03:18:55.276Z,100342.76
2023-02-24T03:21:34.308Z,100338.05
2023-02-24T03:24:06.922Z,100336.14
2023-02-24T03:26:43.721Z,100334.45
2023-02-24T03:29:19.108Z,100327.55
2023-02-24T03:31:55.486Z,100323.80
2023-02-24T03:34:31.121Z,100322.51
2023-02-24T03:37:01.984Z,100317.58
2023-02-24T03:39:33.205Z,100305.36
2023-02-24T03:42:12.075Z,100299.54
2023-02-24T03:44:42.950Z,100292.33
2023-02-24T03:47:14.931Z,100289.05
2023-02-24T03:49:45.958Z,100287.27
2023-02-24T03:52:29.247Z,100284.54
2023-02-24T03:55:18.437Z,100281.15
2023-02-24T03:58:04.076Z,100278.95
2023-02-24T04:00:45.228Z,100279.98
2023-02-24T04:03:33.124Z,100282.39
2023-02-24T04:06:09.017Z,100279.38
2023-02-24T04:08:47.287Z,100274.02
2023-02-24T04:11:26.768Z,100274.13
2023-02-24T04:14:06.506Z,100269.43
2023-02-24T04:16:45.686Z,100266.16
2023-02-24T04:19:22.969Z,100264.41
2023-02-24T04:21:53.729Z,100258.23
2023-02-24T04:24:29.106Z,100257.61
2023-02-24T04:27:02.476Z,100254.02
2023-02-24T04:29:36.283Z,100256.87
2023-02-24T04:32:11.368Z,100252.00
2023-02-24T04:34:43.118Z,100249.91
2023-02-24T04:37:14.806Z,100250.45
2023-02-24T04:39:46.472Z,100240.51
2023-02-24T04:42:17.245Z,100243.88
2023-02-24T04:44:47.828Z,100240.63
2023-02-24T04:47:18.881Z,100238.00
2023-02-24T04:49:49.966Z,100229.98
2023-02-24T04:52:21.006Z,100228.20
2023-02-24T04:54:52.273Z,100222.25
2023-02-24T04:57:22.672Z,100220.35
2023-02-24T04:59:54.467Z,100217.91
2023-02-24T05:02:26.310Z,100215.45
2023-02-24T05:04:59.669Z,100213.13
2023-02-24T05:07:31.635Z,100209.31
2023-02-24T05:10:04.946Z,100208.76
2023-02-24T05:12:36.862Z,100200.92
2023-02-24T05:15:10.641Z,100202.77
2023-02-24T05:17:42.767Z,100196.80
2023-02-24T05:20:33.756Z,100193.53
2023-02-24T05:23:06.916Z,100190.51
2023-02-24T05:25:39.257Z,100186.25
2023-02-24T05:28:12.683Z,100179.20
2023-02-24T05:30:44.824Z,100178.36
2023-02-24T05:33:22.154Z,100177.89
2023-02-24T05:35:55.496Z,100171.31
2023-02-24T05:38:27.750Z,100164.48
2023-02-24T05:41:09.129Z,100159.62
2023-02-24T05:43:42.345Z,100150.71
2023-02-24T05:46:15.902Z,100140.79
2023-02-24T05:48:53.299Z,100138.41
2023-02-24T05:51:24.943Z,100134.32
2023-02-24T05:53:56.704Z,100126.29
2023-02-24T05:56:27.909Z,100122.77
2023-02-24T05:59:07.314Z,100119.34
2023-02-24T06:01:42.667Z,100115.85
2023-02-24T06:04:21.604Z,100114.30
2023-02-24T06:06:53.838Z,100100.41
2023-02-24T06:09:25.832Z,100101.20
2023-02-24T06:11:58.533Z,100097.05
2023-02-24T06:14:31.335Z,100095.33
2023-02-24T06:17:03.695Z,100094.37
2023-02-24T06:19:36.661Z,100092.11
2023-02-24T06:22:12.712Z,100089.40
2023-02-24T06:24:45.809Z,100088.72
2023-02-24T06:27:18.830Z,100086.45
2023-02-24T06:29:51.664Z,100078.04
2023-02-24T06:32:24.516Z,100073.17
2023-02-24T06:34:57.645Z,100070.87
2023-02-24T06:37:31.014Z,100067.85
2023-02-24T06:40:02.367Z,100063.34
2023-02-24T06:42:34.256Z,100056.08
2023-02-24T06:45:08.576Z,100051.61
2023-02-24T06:47:41.071Z,100046.84
2023-02-24T06:50:14.189Z,100042.56
2023-02-24T06:52:46.108Z,100039.41
2023-02-24T06:55:27.253Z,100034.78
2023-02-24T06:58:04.099Z,100034.64
2023-02-24T07:00:39.510Z,100031.95
2023-02-24T07:03:18.201Z,100025.80
2023-02-24T07:05:54.330Z,100025.04
2023-02-24T07:08:27.280Z,100022.41
2023-02-24T07:11:00.288Z,100017.26
2023-02-24T07:13:31.603Z,100013.27
2023-02-24T07:16:07.337Z,100011.16
2023-02-24T07:18:41.395Z,100014.55
2023-02-24T07:21:16.539Z,100008.45
2023-02-24T07:23:49.833Z,100004.72
2023-02-24T07:26:23.186Z,100004.85
2023-02-24T07:28:56.761Z,100000.88
2023-02-24T07:31:27.391Z,99999.73
2023-02-24T07:34:02.057Z,99998.08
2023-02-24T07:36:38.956Z,99993.75
2023-02-24T07:39:12.194Z,99990.40
2023-02-24T07:41:49.965Z,99984.59
2023-02-24T07:44:25.682Z,99981.23
2023-02-24T07:46:59.879Z,99978.21
2023-02-24T07:49:33.114Z,99973.86
2023-02-24T07:52:09.642Z,99968.76
2023-02-24T07:54:42.739Z,99960.94
2023-02-24T07:57:15.519Z,99957.24
2023-02-24T07:59:48.862Z,99947.70
2023-02-24T08:02:24.434Z,99945.50
2023-02-24T08:04:57.705Z,99939.91
2023-02-24T08:07:31.424Z,99934.64
2023-02-24T08:10:14.775Z,99928.23
2023-02-24T08:12:48.123Z,99921.67
2023-02-24T08:15:24.669Z,99919.39
2023-02-24T08:18:00.669Z,99918.56
2023-02-24T08:20:51.745Z,99920.45
2023-02-24T08:23:24.873Z,99914.74
2023-02-24T08:25:58.204Z,99908.64
2023-02-24T08:28:32.547Z,99906.19
2023-02-24T08:31:07.999Z,99904.98
2023-02-24T08:33:42.081Z,99896.25
2023-02-24T08:36:14.718Z,99889.30
2023-02-24T08:38:52.594Z,99888.97
2023-02-24T08:41:45.409Z,99882.63
2023-02-24T08:44:21.094Z,99880.27
2023-02-24T08:46:55.231Z,99876.71
2023-02-24T08:49:28.450Z,99869.42
2023-02-24T08:52:07.779Z,99865.06
2023-02-24T08:54:49.114Z,99862.08
2023-02-24T08:57:26.784Z,99856.85
2023-02-24T08:59:59.833Z,99854.85
2023-02-24T09:02:37.740Z,99853.44
2023-02-24T09:05:14.348Z,99853.50
2023-02-24T09:07:55.366Z,99849.27
2023-02-24T09:10:29.054Z,99849.02
2023-02-24T09:13:02.879Z,99849.19
2023-02-24T09:15:41.876Z,99841.40
2023-02-24T09:18:16.636Z,99840.44
2023-02-24T09:21:16.688Z,99838.21
2023-02-24T09:23:49.359Z,99834.08
2023-02-24T09:26:22.359Z,99834.45
2023-02-24T09:28:57.655Z,99829.19
2023-02-24T09:31:41.223Z,99827.75
2023-02-24T09:34:19.309Z,99823.77
2023-02-24T09:37:03.946Z,99818.98
2023-02-24T09:39:53.053Z,99811.34
2023-02-24T09:42:47.096Z,99808.85
2023-02-24T09:45:34.312Z,99809.59
2023-02-24T09:48:16.809Z,99803.48
2023-02-24T09:51:05.311Z,99797.73
2023-02-24T09:53:53.391Z,99800.22
2023-02-24T09:56:37.629Z,99796.09
2023-02-24T09:59:27.210Z,99790.69
2023-02-24T10:02:21.143Z,99786.88
2023-02-24T10:05:07.762Z,99780.46
2023-02-24T10:07:44.612Z,99781.17
2023-02-24T10:10:28.819Z,99774.38
2023-02-24T10:13:13.941Z,99768.48
2023-02-24T10:16:08.252Z,99757.98
2023-02-24T10:18:49.174Z,99751.70
2023-02-24T10:21:48.907Z,99749.42
2023-02-24T10:24:29.855Z,99741.44
2023-02-24T10:27:08.912Z,99742.25
2023-02-24T10:30:05.446Z,99736.79
2023-02-24T10:32:47.749Z,99730.10
2023-02-24T10:35:26.297Z,99724.70
2023-02-24T10:38:05.855Z,99722.34
2023-02-24T10:40:53.166Z,99717.96
2023-02-24T10:43:32.291Z,99715.10
2023-02-24T10:46:17.627Z,99711.23
2023-02-24T10:49:02.856Z,99708.73
2023-02-24T10:51:39.087Z,99702.34
2023-02-24T10:54:43.668Z,99697.70
2023-02-24T10:57:24.130Z,99693.00
2023-02-24T11:00:20.128Z,99688.73
2023-02-24T11:03:07.990Z,99683.50
2023-02-24T11:06:06.579Z,99678.61
2023-02-24T11:08:55.434Z,99673.16
2023-02-24T11:11:58.526Z,99665.16
2023-02-24T11:14:49.452Z,99651.43
2023-02-24T11:17:27.712Z,99645.49
2023-02-24T11:20:11.587Z,99641.36
2023-02-24T11:22:45.815Z,99631.41
2023-02-24T11:25:24.302Z,99623.85
2023-02-24T11:27:57.898Z,99618.57
2023-02-24T11:30:41.053Z,99607.39
2023-02-24T11:33:23.175Z,99596.20
2023-02-24T11:36:05.215Z,99592.13
2023-02-24T11:38:46.783Z,99582.20
2023-02-24T11:41:26.210Z,99580.45
2023-02-24T11:44:04.083Z,99571.04
2023-02-24T11:46:43.005Z,99561.77
2023-02-24T11:49:28.248Z,99555.45
2023-02-24T11:52:15.728Z,99550.21
2023-02-24T11:54:52.203Z,99540.84
2023-02-24T11:57:32.362Z,99530.13
2023-02-24T12:00:13.395Z,99525.41
2023-02-24T12:02:54.152Z,99517.61
2023-02-24T12:05:28.403Z,99515.03
2023-02-24T12:08:02.936Z,99513.52
2023-02-24T12:10:36.594Z,99506.13
2023-02-24T12:13:15.027Z,99501.14
2023-02-24T12:15:50.547Z,99499.91
2023-02-24T12:18:27.693Z,99493.41
2023-02-24T12:21:05.509Z,99492.63
2023-02-24T12:23:39.459Z,99487.17
2023-02-24T12:26:20.588Z,99485.50
2023-02-24T12:29:18.700Z,99482.60
2023-02-24T12:31:57.340Z,99482.48
2023-02-24T12:34:43.509Z,99483.67
2023-02-24T12:37:43.826Z,99486.96
2023-02-24T12:40:26.238Z,99475.84
2023-02-24T12:43:03.741Z,99471.13
2023-02-24T12:45:47.660Z,99471.39
2023-02-24T12:48:32.014Z,99473.25
2023-02-24T12:51:09.012Z,99466.96
2023-02-24T12:53:48.674Z,99465.33
2023-02-24T12:56:24.732Z,99458.20
2023-02-24T12:59:05.528Z,99458.31
2023-02-24T13:01:42.627Z,99448.79
2023-02-24T13:04:30.686Z,99448.70
2023-02-24T13:07:13.254Z,99442.06
2023-02-24T13:09:58.835Z,99432.91
2023-02-24T13:12:37.530Z,99429.08
2023-02-24T13:15:20.098Z,99426.72
2023-02-24T13:17:56.947Z,99420.50
2023-02-24T13:20:33.043Z,99417.56
2023-02-24T13:23:18.695Z,99412.08
2023-02-24T13:25:57.279Z,99402.10
2023-02-24T13:28:33.597Z,99398.20
2023-02-24T13:31:07.402Z,99392.67
2023-02-24T13:33:41.378Z,99386.80
2023-02-24T13:36:17.491Z,99382.94
2023-02-24T13:38:50.909Z,99382.11
2023-02-24T13:41:42.258Z,99376.89
2023-02-24T13:44:28.114Z,99370.21
2023-02-24T13:47:39.417Z,99369.59
2023-02-24T13:50:21.842Z,99362.27
2023-02-24T13:53:14.432Z,99361.59
2023-02-24T13:55:57.904Z,99354.04
2023-02-24T13:58:59.264Z,99352.70
2023-02-24T14:01:33.955Z,99347.14
2023-02-24T14:04:17.154Z,99347.30
2023-02-24T14:06:53.983Z,99349.91
2023-02-24T14:09:29.180Z,99347.94
2023-02-24T14:12:04.192Z,99338.22
2023-02-24T14:14:35.724Z,99334.06
2023-02-24T14:17:07.557Z,99328.89
2023-02-24T14:19:38.819Z,99328.95
2023-02-24T14:22:21.664Z,99323.93
2023-02-24T14:25:02.011Z,99318.79
2023-02-24T14:27:33.362Z,99316.77
2023-02-24T14:30:05.029Z,99309.88
2023-02-24T14:32:39.115Z,99310.89
2023-02-24T14:35:25.165Z,99308.55
2023-02-24T14:37:57.679Z,99304.81
2023-02-24T14:40:28.980Z,99292.42
2023-02-24T14:43:00.638Z,99290.09
2023-02-24T14:45:31.987Z,99286.58
2023-02-24T14:48:04.397Z,99275.20
2023-02-24T14:50:36.685Z,99273.58
2023-02-24T14:53:13.295Z,99268.14
2023-02-24T14:55:48.335Z,99259.46
2023-02-24T14:58:25.602Z,99262.02
2023-02-24T15:01:02.179Z,99261.02
2023-02-24T15:03:37.255Z,99259.36
2023-02-24T15:06:14.317Z,99255.17
2023-02-24T15:08:49.306Z,99256.11
2023-02-24T15:11:27.259Z,99255.54
2023-02-24T15:14:01.176Z,99252.90
2023-02-24T15:16:41.553Z,99247.70
2023-02-24T15:19:28.752Z,99245.30
2023-02-24T15:21:59.918Z,99242.56
2023-02-24T15:24:32.190Z,99238.54
2023-02-24T15:27:20.429Z,99229.88
2023-02-24T15:30:04.590Z,99231.33
2023-02-24T15:32:38.628Z,99225.73
2023-02-24T15:35:24.584Z,99219.47
2023-02-24T15:37:55.733Z,99212.60
2023-02-24T15:40:29.318Z,99212.85
2023-02-24T15:43:09.298Z,99216.16
2023-02-24T15:45:41.942Z,99211.74
2023-02-24T15:48:27.165Z,99206.11
2023-02-24T15:51:01.416Z,99199.98
2023-02-24T15:53:32.635Z,99199.21
2023-02-24T15:56:03.418Z,99194.55
2023-02-24T15:58:34.986Z,99191.71
2023-02-24T16:01:05.979Z,99189.89
2023-02-24T16:03:36.762Z,99176.06
2023-02-24T16:06:15.592Z,99175.82
2023-02-24T16:08:47.252Z,99171.20
2023-02-24T16:11:21.754Z,99168.59
2023-02-24T16:13:56.912Z,99164.67
2023-02-24T16:16:28.608Z,99163.38
2023-02-24T16:18:59.339Z,99160.22
2023-02-24T16:21:30.178Z,99153.42
2023-02-24T16:24:01.535Z,99157.05
2023-02-24T16:26:34.980Z,99158.55
2023-02-24T16:29:11.771Z,99161.24
2023-02-24T16:31:42.662Z,99159.36
2023-02-24T16:34:16.858Z,99148.34
2023-02-24T16:36:48.269Z,99144.59
2023-02-24T16:39:18.829Z,99145.20
2023-02-24T16:41:50.013Z,99145.17
2023-02-24T16:44:21.099Z,99149.11
2023-02-24T16:46:53.078Z,99146.77
2023-02-24T16:49:25.859Z,99142.40
2023-02-24T16:51:58.307Z,99143.89
2023-02-24T16:54:30.282Z,99145.39
2023-02-24T16:57:01.666Z,99149.10
2023-02-24T16:59:32.341Z,99150.06
2023-02-24T17:02:03.862Z,99145.65
2023-02-24T17:04:35.230Z,99141.04
2023-02-24T17:07:06.219Z,99141.46
2023-02-24T17:09:37.314Z,99135.98
2023-02-24T17:12:12.879Z,99139.17
2023-02-24T17:14:45.270Z,99133.10
2023-02-24T17:17:17.161Z,99129.70
2023-02-24T17:19:48.566Z,99138.42
2023-02-24T17:22:22.454Z,99135.95
2023-02-24T17:24:53.883Z,99137.16
2023-02-24T17:27:25.761Z,99127.52
2023-02-24T17:29:57.106Z,99129.23
2023-02-24T17:32:29.673Z,99125.98
2023-02-24T17:35:01.569Z,99120.48
2023-02-24T17:37:33.054Z,99116.48
2023-02-24T17:40:06.488Z,99109.91
2023-02-24T17:42:38.693Z,99108.59
2023-02-24T17:45:13.687Z,99112.86
2023-02-24T17:47:46.597Z,99112.95
2023-02-24T17:50:17.882Z,99108.46
2023-02-24T17:52:49.296Z,99109.91
2023-02-24T17:55:21.610Z,99109.39
2023-02-24T17:57:55.111Z,99109.39
2023-02-24T18:00:27.486Z,99108.46
2023-02-24T18:02:58.902Z,99110.77
2023-02-24T18:05:30.852Z,99111.42
2023-02-24T18:08:02.159Z,99114.51
2023-02-24T18:10:34.269Z,99112.25
2023-02-24T18:13:05.416Z,99116.09
2023-02-24T18:15:39.326Z,99112.02
2023-02-24T18:18:11.183Z,99108.69
2023-02-24T18:20:46.667Z,99106.89
2023-02-24T18:23:18.506Z,99108.23
2023-02-24T18:25:50.409Z,99105.20
2023-02-24T18:28:21.894Z,99105.73
2023-02-24T18:30:54.135Z,99107.70
2023-02-24T18:33:26.212Z,99110.33
2023-02-24T18:36:12.637Z,99108.36
2023-02-24T18:38:46.841Z,99107.36
2023-02-24T18:41:20.848Z,99110.98
2023-02-24T18:43:54.643Z,99108.86
2023-02-24T18:46:27.159Z,99111.32
2023-02-24T18:48:58.434Z,99110.63
2023-02-24T18:51:30.024Z,99117.29
2023-02-24T18:54:01.927Z,99115.13
2023-02-24T18:56:35.685Z,99113.37
2023-02-24T18:59:07.162Z,99120.48
2023-02-24T19:01:39.992Z,99121.81
2023-02-24T19:04:12.300Z,99123.60
2023-02-24T19:06:48.832Z,99120.52
2023-02-24T19:09:21.909Z,99113.88
2023-02-24T19:11:54.180Z,99109.41
2023-02-24T19:14:25.126Z,99111.88
2023-02-24T19:16:56.552Z,99109.54
2023-02-24T19:19:27.521Z,99107.03
2023-02-24T19:21:59.668Z,99103.73
2023-02-24T19:24:30.866Z,99104.67
2023-02-24T19:27:02.060Z,99103.95
2023-02-24T19:29:33.882Z,99103.65
2023-02-24T19:32:05.680Z,99099.77
2023-02-24T19:34:38.320Z,99098.80
2023-02-24T19:37:09.320Z,99098.42
2023-02-24T19:39:40.102Z,99097.71
2023-02-24T19:42:11.400Z,99099.70
2023-02-24T19:44:42.188Z,99099.03
2023-02-24T19:47:13.273Z,99106.95
2023-02-24T19:49:44.378Z,99105.30
2023-02-24T19:52:15.330Z,99110.05
2023-02-24T19:54:46.142Z,99109.31
2023-02-24T19:57:18.726Z,99106.39
2023-02-24T19:59:53.184Z,99102.11
2023-02-24T20:02:24.488Z,99104.19
2023-02-24T20:04:55.343Z,99110.06
2023-02-24T20:07:27.267Z,99111.11
2023-02-24T20:09:58.385Z,99113.09
2023-02-24T20:12:28.887Z,99113.31
2023-02-24T20:14:59.410Z,99115.79
2023-02-24T20:17:29.796Z,99113.59
2023-02-24T20:20:00.899Z,99119.23
2023-02-24T20:22:31.705Z,99118.92
2023-02-24T20:25:02.292Z,99118.17
2023-02-24T20:27:33.690Z,99122.89
2023-02-24T20:30:04.185Z,99123.75
2023-02-24T20:32:34.753Z,99125.91
2023-02-24T20:35:05.401Z,99122.36
2023-02-24T20:37:36.951Z,99120.65
2023-02-24T20:40:09.815Z,99127.06
2023-02-24T20:42:40.151Z,99126.56
2023-02-24T20:45:13.055Z,99124.98
2023-02-24T20:47:44.233Z,99124.08
2023-02-24T20:50:16.059Z,99118.96
2023-02-24T20:52:48.229Z,99120.61
2023-02-24T20:55:18.977Z,99114.23
2023-02-24T20:57:52.638Z,99116.59
2023-02-24T21:00:25.026Z,99114.14
2023-02-24T21:03:02.646Z,99111.94
2023-02-24T21:05:39.108Z,99108.52
2023-02-24T21:08:12.634Z,99108.60
2023-02-24T21:10:46.195Z,99107.89
2023-02-24T21:13:21.590Z,99107.14
2023-02-24T21:15:58.131Z,99107.77
2023-02-24T21:18:32.747Z,99108.02
2023-02-24T21:21:05.737Z,99106.61
2023-02-24T21:23:39.145Z,99102.69
2023-02-24T21:26:12.879Z,99098.06
2023-02-24T21:28:47.132Z,99104.56
2023-02-24T21:31:25.671Z,99105.44
2023-02-24T21:33:58.944Z,99107.64
2023-02-24T21:36:37.634Z,99103.32
2023-02-24T21:39:14.724Z,99100.27
2023-02-24T21:41:47.724Z,99100.44
2023-02-24T21:44:22.461Z,99097.64
2023-02-24T21:46:55.753Z,99104.43
2023-02-24T21:49:28.509Z,99105.88
2023-02-24T21:52:02.837Z,99113.88
2023-02-24T21:54:36.479Z,99109.16
2023-02-24T21:57:09.134Z,99117.48
2023-02-24T21:59:41.066Z,99115.45
2023-02-24T22:02:17.196Z,99111.20
2023-02-24T22:04:49.541Z,99115.52
2023-02-24T22:07:22.874Z,99115.56
2023-02-24T22:09:55.527Z,99115.78
2023-02-24T22:12:28.760Z,99113.94
2023-02-24T22:15:01.703Z,99115.36
2023-02-24T22:17:34.091Z,99116.98
2023-02-24T22:20:07.335Z,99117.65
2023-02-24T22:22:41.829Z,99119.11
2023-02-24T22:25:14.487Z,99121.35
2023-02-24T22:27:47.782Z,99117.02
2023-02-24T22:30:20.512Z,99120.59
2023-02-24T22:32:53.216Z,99115.98
2023-02-24T22:35:26.225Z,99114.64
2023-02-24T22:37:59.898Z,99118.41
2023-02-24T22:40:32.371Z,99119.69
2023-02-24T22:43:06.522Z,99111.27
2023-02-24T22:45:40.335Z,99113.14
2023-02-24T22:48:12.856Z,99111.35
2023-02-24T22:50:45.508Z,99114.05
2023-02-24T22:53:17.696Z,99113.13
2023-02-24T22:55:52.820Z,99109.72
2023-02-24T22:58:27.070Z,99099.73
2023-02-24T23:00:59.766Z,99106.00
2023-02-24T23:03:33.933Z,99106.71
2023-02-24T23:06:07.861Z,99102.64
2023-02-24T23:08:42.232Z,99104.17
2023-02-24T23:11:16.493Z,99101.13
2023-02-24T23:13:50.460Z,99106.80
2023-02-24T23:16:25.945Z,99102.21
2023-02-24T23:18:58.799Z,99102.67
2023-02-24T23:21:37.248Z,99111.92
2023-02-24T23:24:13.037Z,99116.36
2023-02-24T23:26:47.527Z,99115.02
2023-02-24T23:29:23.058Z,99113.57
2023-02-24T23:31:56.563Z,99114.03
2023-02-24T23:34:29.610Z,99115.54
2023-02-24T23:37:02.088Z,99117.27
2023-02-24T23:39:35.554Z,99123.89
2023-02-24T23:42:08.050Z,99127.50
2023-02-24T23:44:41.873Z,99128.25
2023-02-24T23:47:15.074Z,99134.19
2023-02-24T23:49:48.717Z,99131.35
2023-02-24T23:52:21.739Z,99133.05
2023-02-24T23:54:56.768Z,99130.79
2023-02-24T23:57:31.637Z,99136.36
